Time;durP1;ratioP1;P1;durP2;ratioP2;P2;SDS_P1;SDS_P2;PMS_P1;PMS_P2;Temp;Humidity;BMP_temperature;BMP_pressure;BME280_temperature;BME280_humidity;BME280_pressure;Samples;Min_cycle;Max_cycle;Signal;HPM_P1;HPM_P2
2024/01/31 12:31:03;;;;;;;;;;;;;;;;;;6029823;23;20211;-94
2024/01/31 12:33:29;;;;;;;;;;;;;;;;;;4950057;29;19923;-90
2024/01/31 12:35:54;;;;;;;;;;;;;;;;;;4918100;29;19929;-92
2024/01/31 12:38:24;;;;;;;;;;;;;;;;;;4923355;29;19922;-91
2024/01/31 12:40:51;;;;;;;;;;;;;;;;;;4920003;29;19962;-91
2024/01/31 12:43:16;;;;;;;;;;;;;;;;;;4920145;29;19915;-93
2024/01/31 12:45:42;;;;;;;;;;;;;;;;;;4918036;29;19970;-90
2024/01/31 18:10:54;;;;;;;;;;;;;;;;;;4961685;23;19926;-90
2024/01/31 18:13:19;;;;;;;;;;;;;;;;;;4936247;29;20005;-92
2024/01/31 18:15:44;;;;;;;;;;;;;;;;;;4937201;29;19922;-91
2024/01/31 18:18:10;;;;;;;;;;;;;;;;;;4934429;29;19915;-92
2024/01/31 18:20:35;;;;;;;;;;;;;;;;;;4936626;29;19978;-92
2024/01/31 18:23:01;;;;;;;;;;;;;;;;;;4937345;29;19914;-89
2024/01/31 18:25:26;;;;;;;;;;;;;;;;;;4936512;29;19915;-89
2024/01/31 18:27:55;;;;;;;;;;;;;;;;;;4935728;29;20281;-92
2024/01/31 18:30:20;;;;;;;;;;;;;;;;;;4935972;29;19922;-90
2024/01/31 18:32:46;;;;;;;;;;;;;;;;;;4936010;29;19915;-90
2024/01/31 18:35:12;;;;;;;;;;;;;;;;;;4939423;29;19922;-91
2024/01/31 18:37:38;;;;;;;;;;;;;;;;;;4939317;29;19915;-91
2024/01/31 18:40:04;;;;;;;;;;;;;;;;;;4939409;29;19921;-90
2024/01/31 18:42:30;;;;;;;;;;;;;;;;;;4939496;29;19921;-89
2024/01/31 18:44:55;;;;;;;;;;;;;;;;;;4939184;29;19914;-92
2024/01/31 18:47:21;;;;;;;;;;;;;;;;;;4939369;29;19964;-91
2024/01/31 18:49:46;;;;;;;;;;;;;;;;;;4939292;29;20013;-91
2024/01/31 18:52:12;;;;;;;;;;;;;;;;;;4939103;29;20285;-91
2024/01/31 18:54:37;;;;;;;;;;;;;;;;;;4939557;29;19953;-91
2024/01/31 18:57:03;;;;;;;;;;;;;;;;;;4941267;29;19922;-88
2024/01/31 18:59:29;;;;;;;;;;;;;;;;;;4938774;29;19922;-89
2024/01/31 19:01:54;;;;;;;;;;;;;;;;;;4938509;29;20293;-88
2024/01/31 19:04:19;;;;;;;;;;;;;;;;;;4938651;29;20361;-88
2024/01/31 19:06:45;;;;;;;;;;;;;;;;;;4939632;29;19969;-89
2024/01/31 19:09:10;;;;;;;;;;;;;;;;;;4938439;29;19937;-89
2024/01/31 19:11:35;;;;;;;;;;;;;;;;;;4938460;29;19958;-88
2024/01/31 19:14:02;;;;;;;;;;;;;;;;;;4938654;29;19914;-89
2024/01/31 19:16:28;;;;;;;;;;;;;;;;;;4938886;29;19915;-92
2024/01/31 19:18:53;;;;;;;;;;;;;;;;;;4940843;29;19919;-95
2024/01/31 19:21:19;;;;;;;;;;;;;;;;;;4939438;29;19915;-89
2024/01/31 19:23:45;;;;;;;;;;;;;;;;;;4939136;29;20270;-90
2024/01/31 19:26:10;;;;;;;;;;;;;;;;;;4938915;29;19914;-89
2024/01/31 19:28:35;;;;;;;;;;;;;;;;;;4939440;29;19914;-93
2024/01/31 19:31:01;;;;;;;;;;;;;;;;;;4939578;29;20278;-93
2024/01/31 19:33:26;;;;;;;;;;;;;;;;;;4939830;29;19914;-94
2024/01/31 19:35:51;;;;;;;;;;;;;;;;;;4940919;29;19997;-94
2024/01/31 19:38:17;;;;;;;;;;;;;;;;;;4941996;29;20002;-94
2024/01/31 19:40:42;;;;;;;;;;;;;;;;;;4939666;29;19954;-94
2024/01/31 19:43:07;;;;;;;;;;;;;;;;;;4939401;29;19922;-94
2024/01/31 19:45:33;;;;;;;;;;;;;;;;;;4938658;29;19914;-94
2024/01/31 19:47:58;;;;;;;;;;;;;;;;;;4939465;29;19925;-94
2024/01/31 19:50:24;;;;;;;;;;;;;;;;;;4939469;29;19918;-93
2024/01/31 19:52:50;;;;;;;;;;;;;;;;;;4939153;29;20274;-93
2024/01/31 19:55:15;;;;;;;;;;;;;;;;;;4939072;29;19914;-94
2024/01/31 19:57:42;;;;;;;;;;;;;;;;;;4938525;29;19915;-93
2024/01/31 20:00:08;;;;;;;;;;;;;;;;;;4938319;29;19944;-94
2024/01/31 20:02:34;;;;;;;;;;;;;;;;;;4939739;29;19919;-94
2024/01/31 20:05:00;;;;;;;;;;;;;;;;;;4942066;29;19966;-95
2024/01/31 20:07:25;;;;;;;;;;;;;;;;;;4937958;29;19922;-95
2024/01/31 20:09:50;;;;;;;;;;;;;;;;;;4938213;29;19915;-94
2024/01/31 20:12:16;;;;;;;;;;;;;;;;;;4939082;29;19925;-94
2024/01/31 20:14:41;;;;;;;;;;;;;;;;;;4940018;29;20444;-93
2024/01/31 20:17:06;;;;;;;;;;;;;;;;;;4957292;29;19950;-93
2024/01/31 20:19:32;;;;;;;;;;;;;;;;;;4948868;29;19915;-93
2024/01/31 20:21:57;;;;;;;;;;;;;;;;;;4941117;29;19915;-93
2024/01/31 20:24:24;;;;;;;;;;;;;;;;;;4940846;29;19982;-93
2024/01/31 20:26:52;;;;;;;;;;;;;;;;;;4939386;29;19918;-92
2024/01/31 20:29:17;;;;;;;;;;;;;;;;;;4938845;29;19919;-93
2024/01/31 20:31:42;;;;;;;;;;;;;;;;;;4939292;29;20005;-92
2024/01/31 20:34:08;;;;;;;;;;;;;;;;;;4940039;29;19915;-94
2024/01/31 20:36:33;;;;;;;;;;;;;;;;;;4939569;29;19919;-94
2024/01/31 20:38:58;;;;;;;;;;;;;;;;;;4938887;29;19918;-93
2024/01/31 20:41:26;;;;;;;;;;;;;;;;;;4940010;29;19915;-93
2024/01/31 20:43:51;;;;;;;;;;;;;;;;;;4939287;29;20357;-92
2024/01/31 20:46:17;;;;;;;;;;;;;;;;;;4939125;29;19942;-93
2024/01/31 20:48:44;;;;;;;;;;;;;;;;;;4939309;29;19914;-93
2024/01/31 20:51:10;;;;;;;;;;;;;;;;;;4939564;29;19922;-93
2024/01/31 20:53:35;;;;;;;;;;;;;;;;;;4938704;29;19915;-92
2024/01/31 20:56:04;;;;;;;;;;;;;;;;;;4937890;29;19914;-93
2024/01/31 20:58:29;;;;;;;;;;;;;;;;;;4939104;29;19918;-93
2024/01/31 21:00:55;;;;;;;;;;;;;;;;;;4939033;29;19921;-93
2024/01/31 21:03:20;;;;;;;;;;;;;;;;;;4939601;29;19966;-94
2024/01/31 21:05:46;;;;;;;;;;;;;;;;;;4940503;29;20320;-94
2024/01/31 21:08:11;;;;;;;;;;;;;;;;;;4939570;29;20388;-93
2024/01/31 21:10:37;;;;;;;;;;;;;;;;;;4938776;29;19921;-94
2024/01/31 21:13:04;;;;;;;;;;;;;;;;;;4940801;29;19915;-94
2024/01/31 21:15:29;;;;;;;;;;;;;;;;;;4940853;29;19922;-93
2024/01/31 21:17:55;;;;;;;;;;;;;;;;;;4941307;29;20282;-95
2024/01/31 21:20:21;;;;;;;;;;;;;;;;;;4942824;29;19970;-93
2024/01/31 21:22:46;;;;;;;;;;;;;;;;;;4940048;29;19911;-96
2024/01/31 21:25:11;;;;;;;;;;;;;;;;;;4937864;29;19914;-94
2024/01/31 21:27:37;;;;;;;;;;;;;;;;;;4936831;29;20374;-94
2024/01/31 21:30:02;;;;;;;;;;;;;;;;;;4936631;29;20377;-93
2024/01/31 21:32:28;;;;;;;;;;;;;;;;;;4937124;29;19966;-94
2024/01/31 21:34:53;;;;;;;;;;;;;;;;;;4936897;29;19997;-94
2024/01/31 21:37:18;;;;;;;;;;;;;;;;;;4936356;29;20370;-94
2024/01/31 21:39:45;;;;;;;;;;;;;;;;;;4936819;29;19915;-93
2024/01/31 21:42:10;;;;;;;;;;;;;;;;;;4936747;29;19922;-94
2024/01/31 21:44:36;;;;;;;;;;;;;;;;;;4936806;29;19915;-94
2024/01/31 21:47:02;;;;;;;;;;;;;;;;;;4936778;29;19941;-94
2024/01/31 21:49:27;;;;;;;;;;;;;;;;;;4936713;29;19921;-94
2024/01/31 21:51:52;;;;;;;;;;;;;;;;;;4936604;29;20005;-94
2024/01/31 21:54:18;;;;;;;;;;;;;;;;;;4936879;29;20018;-92
2024/01/31 21:56:46;;;;;;;;;;;;;;;;;;4936462;29;20373;-95
2024/01/31 21:59:12;;;;;;;;;;;;;;;;;;4936667;29;19922;-94
2024/01/31 22:01:37;;;;;;;;;;;;;;;;;;4936684;29;19914;-93
2024/01/31 22:04:03;;;;;;;;;;;;;;;;;;4936653;29;20013;-95
2024/01/31 22:06:28;;;;;;;;;;;;;;;;;;4936652;29;19914;-95
2024/01/31 22:08:54;;;;;;;;;;;;;;;;;;4938426;29;19915;-95
2024/01/31 22:11:20;;;;;;;;;;;;;;;;;;4940375;29;19919;-94
2024/01/31 22:13:45;;;;;;;;;;;;;;;;;;4940436;29;20278;-93
2024/01/31 22:16:11;;;;;;;;;;;;;;;;;;4940375;29;20364;-94
2024/01/31 22:18:36;;;;;;;;;;;;;;;;;;4940537;29;20005;-95
2024/01/31 22:21:03;;;;;;;;;;;;;;;;;;4940281;29;20362;-95
2024/01/31 22:23:28;;;;;;;;;;;;;;;;;;4940127;29;20317;-94
2024/01/31 22:25:54;;;;;;;;;;;;;;;;;;4940476;29;19918;-94
2024/01/31 22:28:19;;;;;;;;;;;;;;;;;;4939859;29;19915;-95
2024/01/31 22:30:45;;;;;;;;;;;;;;;;;;4940316;29;19954;-96
2024/01/31 22:33:12;;;;;;;;;;;;;;;;;;4940411;29;19915;-94
2024/01/31 22:35:38;;;;;;;;;;;;;;;;;;4941738;29;19915;-93
2024/01/31 22:38:04;;;;;;;;;;;;;;;;;;4940123;29;19914;-94
2024/01/31 22:40:30;;;;;;;;;;;;;;;;;;4945715;29;20393;-94
2024/01/31 22:42:55;;;;;;;;;;;;;;;;;;4949956;29;19910;-94
2024/01/31 22:45:20;;;;;;;;;;;;;;;;;;4941190;29;19914;-95
2024/01/31 22:47:46;;;;;;;;;;;;;;;;;;4939802;29;19915;-93
2024/01/31 22:50:11;;;;;;;;;;;;;;;;;;4923832;29;19921;-94
2024/01/31 22:52:39;;;;;;;;;;;;;;;;;;4939415;29;19969;-94
2024/01/31 22:55:05;;;;;;;;;;;;;;;;;;4939682;29;19981;-94
2024/01/31 22:57:30;;;;;;;;;;;;;;;;;;4940557;29;19957;-91
